Weather at La Puerta Airport

Public forecast

Using degrees Celsius for public forecast. Weather courtesy of forecast.io.

Closest aviation weather report (METAR) to La Puerta Airport

Closest report is General Freire Airport, 22.6 nm (41.9 km) SSE. Retrieved 2021/01/24 10:00 UTC (43 minutes ago):

SCIC 241000Z AUTO 01003KT 9999 NCD 16/14 Q1011

Closest aviation forecast (TAF) to La Puerta Airport

Closest forecast is Comodoro Arturo Merino Benítez International Airport, 78.9 nm (146.2 km) NNE. Retrieved 2021/01/24 06:00 UTC (5 hours ago):

TAF SCEL 240400Z 2406/2506 16004KT CAVOK TX30/2418Z TN15/2410Z BECMG 2408/2410 VRB02KT BECMG 2413/2415 19008KT BECMG 2418/2420 21015KT BECMG 2502/2504 16004KT